sensor_id;sensor_type;location;lat;lon;timestamp;temperature;humidity
17797;DHT22;55596;53.554;9.916;2022-08-21T00:01:00;13.20;99.90
17797;DHT22;55596;53.554;9.916;2022-08-21T00:03:27;12.90;99.90
17797;DHT22;55596;53.554;9.916;2022-08-21T00:05:54;13.10;99.90
17797;DHT22;55596;53.554;9.916;2022-08-21T00:08:21;13.10;99.90
17797;DHT22;55596;53.554;9.916;2022-08-21T00:10:49;13.10;99.90
17797;DHT22;55596;53.554;9.916;2022-08-21T00:13:16;12.20;99.90
17797;DHT22;55596;53.554;9.916;2022-08-21T00:15:45;13.10;99.90
17797;DHT22;55596;53.554;9.916;2022-08-21T00:18:15;12.90;99.90
17797;DHT22;55596;53.554;9.916;2022-08-21T00:20:43;12.50;99.90
17797;DHT22;55596;53.554;9.916;2022-08-21T00:23:10;12.90;99.90
17797;DHT22;55596;53.554;9.916;2022-08-21T00:25:38;13.00;99.90
17797;DHT22;55596;53.554;9.916;2022-08-21T00:28:05;13.00;99.90
17797;DHT22;55596;53.554;9.916;2022-08-21T00:30:32;13.00;99.90
17797;DHT22;55596;53.554;9.916;2022-08-21T00:32:59;12.50;99.90
17797;DHT22;55596;53.554;9.916;2022-08-21T00:35:29;13.00;99.90
17797;DHT22;55596;53.554;9.916;2022-08-21T00:37:57;12.50;99.90
17797;DHT22;55596;53.554;9.916;2022-08-21T00:40:27;13.10;99.90
17797;DHT22;55596;53.554;9.916;2022-08-21T00:42:55;13.20;99.90
17797;DHT22;55596;53.554;9.916;2022-08-21T00:45:22;13.00;99.90
17797;DHT22;55596;53.554;9.916;2022-08-21T00:47:51;13.20;99.90
17797;DHT22;55596;53.554;9.916;2022-08-21T00:50:19;13.30;99.90
17797;DHT22;55596;53.554;9.916;2022-08-21T00:52:48;13.20;99.90
17797;DHT22;55596;53.554;9.916;2022-08-21T00:55:16;13.40;99.90
17797;DHT22;55596;53.554;9.916;2022-08-21T00:57:47;12.20;99.90
17797;DHT22;55596;53.554;9.916;2022-08-21T01:00:19;13.40;99.90
17797;DHT22;55596;53.554;9.916;2022-08-21T01:02:47;13.40;99.90
17797;DHT22;55596;53.554;9.916;2022-08-21T01:05:14;13.30;99.90
17797;DHT22;55596;53.554;9.916;2022-08-21T01:07:41;13.40;99.90
17797;DHT22;55596;53.554;9.916;2022-08-21T01:10:10;13.40;99.90
17797;DHT22;55596;53.554;9.916;2022-08-21T01:12:39;13.40;99.90
17797;DHT22;55596;53.554;9.916;2022-08-21T01:15:09;13.40;99.90
17797;DHT22;55596;53.554;9.916;2022-08-21T01:17:37;13.30;99.90
17797;DHT22;55596;53.554;9.916;2022-08-21T01:20:06;13.20;99.90
17797;DHT22;55596;53.554;9.916;2022-08-21T01:22:35;13.20;99.90
17797;DHT22;55596;53.554;9.916;2022-08-21T01:25:03;13.10;99.90
17797;DHT22;55596;53.554;9.916;2022-08-21T01:27:30;13.30;99.90
17797;DHT22;55596;53.554;9.916;2022-08-21T01:29:59;13.10;99.90
17797;DHT22;55596;53.554;9.916;2022-08-21T01:32:28;13.10;99.90
17797;DHT22;55596;53.554;9.916;2022-08-21T01:34:55;13.10;99.90
17797;DHT22;55596;53.554;9.916;2022-08-21T01:37:22;12.90;99.90
17797;DHT22;55596;53.554;9.916;2022-08-21T01:39:50;13.10;99.90
17797;DHT22;55596;53.554;9.916;2022-08-21T01:42:17;13.20;99.90
17797;DHT22;55596;53.554;9.916;2022-08-21T01:44:44;13.50;99.90
17797;DHT22;55596;53.554;9.916;2022-08-21T01:47:12;13.00;99.90
17797;DHT22;55596;53.554;9.916;2022-08-21T01:49:42;13.10;99.90
17797;DHT22;55596;53.554;9.916;2022-08-21T01:52:09;12.90;99.90
17797;DHT22;55596;53.554;9.916;2022-08-21T01:54:37;13.00;99.90
17797;DHT22;55596;53.554;9.916;2022-08-21T01:57:06;13.10;99.90
17797;DHT22;55596;53.554;9.916;2022-08-21T01:59:34;13.10;99.90
17797;DHT22;55596;53.554;9.916;2022-08-21T02:02:01;13.10;99.90
17797;DHT22;55596;53.554;9.916;2022-08-21T02:04:29;12.80;99.90
17797;DHT22;55596;53.554;9.916;2022-08-21T02:06:56;13.10;99.90
17797;DHT22;55596;53.554;9.916;2022-08-21T02:09:23;13.10;99.90
17797;DHT22;55596;53.554;9.916;2022-08-21T02:11:49;13.20;99.90
17797;DHT22;55596;53.554;9.916;2022-08-21T02:14:18;13.10;99.90
17797;DHT22;55596;53.554;9.916;2022-08-21T02:16:45;13.00;99.90
17797;DHT22;55596;53.554;9.916;2022-08-21T02:19:14;13.00;99.90
17797;DHT22;55596;53.554;9.916;2022-08-21T02:21:41;13.00;99.90
17797;DHT22;55596;53.554;9.916;2022-08-21T02:24:09;13.00;99.90
17797;DHT22;55596;53.554;9.916;2022-08-21T02:26:35;13.00;99.90
17797;DHT22;55596;53.554;9.916;2022-08-21T02:29:04;12.90;99.90
17797;DHT22;55596;53.554;9.916;2022-08-21T02:31:32;12.80;99.90
17797;DHT22;55596;53.554;9.916;2022-08-21T02:33:59;12.90;99.90
17797;DHT22;55596;53.554;9.916;2022-08-21T02:36:26;12.90;99.90
17797;DHT22;55596;53.554;9.916;2022-08-21T02:38:53;12.90;99.90
17797;DHT22;55596;53.554;9.916;2022-08-21T02:41:20;12.90;99.90
17797;DHT22;55596;53.554;9.916;2022-08-21T02:43:47;12.80;99.90
17797;DHT22;55596;53.554;9.916;2022-08-21T02:46:17;12.80;99.90
17797;DHT22;55596;53.554;9.916;2022-08-21T02:48:46;12.80;99.90
17797;DHT22;55596;53.554;9.916;2022-08-21T02:51:15;12.80;99.90
17797;DHT22;55596;53.554;9.916;2022-08-21T02:53:43;12.70;99.90
17797;DHT22;55596;53.554;9.916;2022-08-21T02:56:14;12.70;99.90
17797;DHT22;55596;53.554;9.916;2022-08-21T02:58:43;12.60;99.90
17797;DHT22;55596;53.554;9.916;2022-08-21T03:01:11;12.70;99.90
17797;DHT22;55596;53.554;9.916;2022-08-21T03:03:40;12.50;99.90
17797;DHT22;55596;53.554;9.916;2022-08-21T03:06:11;12.60;99.90
17797;DHT22;55596;53.554;9.916;2022-08-21T03:08:38;12.50;99.90
17797;DHT22;55596;53.554;9.916;2022-08-21T03:11:05;12.30;99.90
17797;DHT22;55596;53.554;9.916;2022-08-21T03:13:33;12.60;99.90
17797;DHT22;55596;53.554;9.916;2022-08-21T03:16:00;12.50;99.90
17797;DHT22;55596;53.554;9.916;2022-08-21T03:18:26;12.60;99.90
17797;DHT22;55596;53.554;9.916;2022-08-21T03:20:53;12.70;99.90
17797;DHT22;55596;53.554;9.916;2022-08-21T03:23:21;12.50;99.90
17797;DHT22;55596;53.554;9.916;2022-08-21T03:25:49;12.40;99.90
17797;DHT22;55596;53.554;9.916;2022-08-21T03:28:18;12.20;99.90
17797;DHT22;55596;53.554;9.916;2022-08-21T03:30:48;12.30;99.90
17797;DHT22;55596;53.554;9.916;2022-08-21T03:33:16;12.30;99.90
17797;DHT22;55596;53.554;9.916;2022-08-21T03:35:45;12.20;99.90
17797;DHT22;55596;53.554;9.916;2022-08-21T03:38:13;12.10;99.90
17797;DHT22;55596;53.554;9.916;2022-08-21T03:40:41;12.10;99.90
17797;DHT22;55596;53.554;9.916;2022-08-21T03:43:08;12.10;99.90
17797;DHT22;55596;53.554;9.916;2022-08-21T03:45:35;12.10;99.90
17797;DHT22;55596;53.554;9.916;2022-08-21T03:48:03;12.40;99.90
17797;DHT22;55596;53.554;9.916;2022-08-21T03:50:33;12.10;99.90
17797;DHT22;55596;53.554;9.916;2022-08-21T03:53:01;11.80;99.90
17797;DHT22;55596;53.554;9.916;2022-08-21T03:55:28;11.80;99.90
17797;DHT22;55596;53.554;9.916;2022-08-21T03:57:56;12.10;99.90
17797;DHT22;55596;53.554;9.916;2022-08-21T04:00:24;12.10;99.90
17797;DHT22;55596;53.554;9.916;2022-08-21T04:02:51;12.10;99.90
17797;DHT22;55596;53.554;9.916;2022-08-21T04:05:19;12.10;99.90
17797;DHT22;55596;53.554;9.916;2022-08-21T04:07:54;12.60;99.90
17797;DHT22;55596;53.554;9.916;2022-08-21T04:10:21;12.10;99.90
17797;DHT22;55596;53.554;9.916;2022-08-21T04:12:49;12.10;99.90
17797;DHT22;55596;53.554;9.916;2022-08-21T04:15:17;12.30;99.90
17797;DHT22;55596;53.554;9.916;2022-08-21T04:17:44;12.20;99.90
17797;DHT22;55596;53.554;9.916;2022-08-21T04:20:11;12.30;99.90
17797;DHT22;55596;53.554;9.916;2022-08-21T04:22:38;12.30;99.90
17797;DHT22;55596;53.554;9.916;2022-08-21T04:25:06;12.40;99.90
17797;DHT22;55596;53.554;9.916;2022-08-21T04:27:33;12.10;99.90
17797;DHT22;55596;53.554;9.916;2022-08-21T04:30:00;12.70;99.90
17797;DHT22;55596;53.554;9.916;2022-08-21T04:32:28;12.90;99.90
17797;DHT22;55596;53.554;9.916;2022-08-21T04:34:59;13.00;99.90
17797;DHT22;55596;53.554;9.916;2022-08-21T04:37:26;13.20;99.90
17797;DHT22;55596;53.554;9.916;2022-08-21T04:39:53;13.30;99.90
17797;DHT22;55596;53.554;9.916;2022-08-21T04:42:22;13.50;99.90
17797;DHT22;55596;53.554;9.916;2022-08-21T04:44:49;13.60;99.90
17797;DHT22;55596;53.554;9.916;2022-08-21T04:47:16;13.70;99.90
17797;DHT22;55596;53.554;9.916;2022-08-21T04:49:44;13.70;99.90
17797;DHT22;55596;53.554;9.916;2022-08-21T04:52:14;13.90;99.90
17797;DHT22;55596;53.554;9.916;2022-08-21T04:54:42;14.00;99.90
17797;DHT22;55596;53.554;9.916;2022-08-21T04:57:11;14.20;99.90
17797;DHT22;55596;53.554;9.916;2022-08-21T04:59:40;14.20;99.90
17797;DHT22;55596;53.554;9.916;2022-08-21T05:02:08;14.20;99.90
17797;DHT22;55596;53.554;9.916;2022-08-21T05:04:39;14.20;99.90
17797;DHT22;55596;53.554;9.916;2022-08-21T05:07:12;14.20;99.90
17797;DHT22;55596;53.554;9.916;2022-08-21T05:09:41;14.40;99.90
17797;DHT22;55596;53.554;9.916;2022-08-21T05:12:08;14.40;99.90
17797;DHT22;55596;53.554;9.916;2022-08-21T05:14:35;14.60;99.90
17797;DHT22;55596;53.554;9.916;2022-08-21T05:17:03;14.80;99.90
17797;DHT22;55596;53.554;9.916;2022-08-21T05:19:30;14.70;99.90
17797;DHT22;55596;53.554;9.916;2022-08-21T05:21:57;14.80;99.90
17797;DHT22;55596;53.554;9.916;2022-08-21T05:24:25;15.10;99.90
17797;DHT22;55596;53.554;9.916;2022-08-21T05:26:52;15.20;99.90
17797;DHT22;55596;53.554;9.916;2022-08-21T05:29:19;15.40;99.90
17797;DHT22;55596;53.554;9.916;2022-08-21T05:31:47;15.60;99.90
17797;DHT22;55596;53.554;9.916;2022-08-21T05:34:15;15.80;99.90
17797;DHT22;55596;53.554;9.916;2022-08-21T05:36:44;15.80;99.90
17797;DHT22;55596;53.554;9.916;2022-08-21T05:39:11;16.10;99.90
17797;DHT22;55596;53.554;9.916;2022-08-21T05:41:39;16.20;99.90
17797;DHT22;55596;53.554;9.916;2022-08-21T05:44:06;16.10;99.90
17797;DHT22;55596;53.554;9.916;2022-08-21T05:46:33;16.20;99.90
17797;DHT22;55596;53.554;9.916;2022-08-21T05:48:59;16.40;99.90
17797;DHT22;55596;53.554;9.916;2022-08-21T05:51:26;16.30;99.90
17797;DHT22;55596;53.554;9.916;2022-08-21T05:53:53;16.50;99.90
17797;DHT22;55596;53.554;9.916;2022-08-21T05:56:20;16.40;99.90
17797;DHT22;55596;53.554;9.916;2022-08-21T05:58:48;17.00;99.90
17797;DHT22;55596;53.554;9.916;2022-08-21T06:01:15;17.00;99.90
17797;DHT22;55596;53.554;9.916;2022-08-21T06:03:42;17.30;99.90
17797;DHT22;55596;53.554;9.916;2022-08-21T06:06:10;17.70;99.90
17797;DHT22;55596;53.554;9.916;2022-08-21T06:08:37;17.40;99.90
17797;DHT22;55596;53.554;9.916;2022-08-21T06:11:05;17.60;99.90
17797;DHT22;55596;53.554;9.916;2022-08-21T06:13:32;17.60;99.90
17797;DHT22;55596;53.554;9.916;2022-08-21T06:16:08;17.80;99.90
17797;DHT22;55596;53.554;9.916;2022-08-21T06:18:36;17.50;99.90
17797;DHT22;55596;53.554;9.916;2022-08-21T06:21:04;18.00;99.90
17797;DHT22;55596;53.554;9.916;2022-08-21T06:23:31;18.00;99.90
17797;DHT22;55596;53.554;9.916;2022-08-21T06:25:58;17.90;99.90
17797;DHT22;55596;53.554;9.916;2022-08-21T06:28:25;18.00;99.90
17797;DHT22;55596;53.554;9.916;2022-08-21T06:30:53;17.70;99.90
17797;DHT22;55596;53.554;9.916;2022-08-21T06:33:22;18.00;99.90
17797;DHT22;55596;53.554;9.916;2022-08-21T06:35:49;17.40;99.90
17797;DHT22;55596;53.554;9.916;2022-08-21T06:38:17;15.20;99.90
17797;DHT22;55596;53.554;9.916;2022-08-21T06:40:45;17.20;99.90
17797;DHT22;55596;53.554;9.916;2022-08-21T06:43:16;17.50;99.90
17797;DHT22;55596;53.554;9.916;2022-08-21T06:45:43;17.10;99.90
17797;DHT22;55596;53.554;9.916;2022-08-21T06:48:10;17.10;99.90
17797;DHT22;55596;53.554;9.916;2022-08-21T06:50:39;17.30;99.90
17797;DHT22;55596;53.554;9.916;2022-08-21T06:53:08;17.30;99.90
17797;DHT22;55596;53.554;9.916;2022-08-21T06:55:36;17.40;99.90
17797;DHT22;55596;53.554;9.916;2022-08-21T06:58:08;17.50;99.90
17797;DHT22;55596;53.554;9.916;2022-08-21T07:00:38;17.60;99.90
17797;DHT22;55596;53.554;9.916;2022-08-21T07:03:06;18.00;99.90
17797;DHT22;55596;53.554;9.916;2022-08-21T07:05:33;17.40;99.90
17797;DHT22;55596;53.554;9.916;2022-08-21T07:08:01;19.60;99.90
17797;DHT22;55596;53.554;9.916;2022-08-21T07:10:28;18.00;99.90
17797;DHT22;55596;53.554;9.916;2022-08-21T07:12:55;17.80;99.90
17797;DHT22;55596;53.554;9.916;2022-08-21T07:15:22;18.20;99.90
17797;DHT22;55596;53.554;9.916;2022-08-21T07:17:49;18.30;99.90
17797;DHT22;55596;53.554;9.916;2022-08-21T07:20:17;18.30;99.90
17797;DHT22;55596;53.554;9.916;2022-08-21T07:22:44;18.70;99.90
17797;DHT22;55596;53.554;9.916;2022-08-21T07:25:12;18.50;99.90
17797;DHT22;55596;53.554;9.916;2022-08-21T07:27:39;18.70;99.90
17797;DHT22;55596;53.554;9.916;2022-08-21T07:30:08;18.50;99.90
17797;DHT22;55596;53.554;9.916;2022-08-21T07:32:36;19.10;99.90
17797;DHT22;55596;53.554;9.916;2022-08-21T07:35:03;18.90;99.90
17797;DHT22;55596;53.554;9.916;2022-08-21T07:37:30;18.90;99.90
17797;DHT22;55596;53.554;9.916;2022-08-21T07:39:57;18.60;99.90
17797;DHT22;55596;53.554;9.916;2022-08-21T07:42:39;19.40;99.90
17797;DHT22;55596;53.554;9.916;2022-08-21T07:45:07;19.20;99.90
17797;DHT22;55596;53.554;9.916;2022-08-21T07:47:35;19.00;99.90
17797;DHT22;55596;53.554;9.916;2022-08-21T07:50:03;19.30;99.90
17797;DHT22;55596;53.554;9.916;2022-08-21T07:52:30;19.50;99.90
17797;DHT22;55596;53.554;9.916;2022-08-21T07:54:58;21.10;99.90
17797;DHT22;55596;53.554;9.916;2022-08-21T07:57:26;19.80;99.90
17797;DHT22;55596;53.554;9.916;2022-08-21T07:59:54;19.50;99.90
17797;DHT22;55596;53.554;9.916;2022-08-21T08:02:29;19.50;99.90
17797;DHT22;55596;53.554;9.916;2022-08-21T08:04:58;19.50;99.90
17797;DHT22;55596;53.554;9.916;2022-08-21T08:07:26;19.80;99.90
17797;DHT22;55596;53.554;9.916;2022-08-21T08:09:53;19.80;99.90
17797;DHT22;55596;53.554;9.916;2022-08-21T08:12:20;19.60;99.90
17797;DHT22;55596;53.554;9.916;2022-08-21T08:14:49;19.50;99.90
17797;DHT22;55596;53.554;9.916;2022-08-21T08:17:16;20.30;99.90
17797;DHT22;55596;53.554;9.916;2022-08-21T08:19:47;19.90;99.90
17797;DHT22;55596;53.554;9.916;2022-08-21T08:22:19;20.10;99.90
17797;DHT22;55596;53.554;9.916;2022-08-21T08:24:49;20.00;99.90
17797;DHT22;55596;53.554;9.916;2022-08-21T08:27:17;20.20;99.90
17797;DHT22;55596;53.554;9.916;2022-08-21T08:29:45;20.10;99.90
17797;DHT22;55596;53.554;9.916;2022-08-21T08:32:14;20.30;99.90
17797;DHT22;55596;53.554;9.916;2022-08-21T08:34:42;20.00;99.90
17797;DHT22;55596;53.554;9.916;2022-08-21T08:37:10;20.50;99.90
17797;DHT22;55596;53.554;9.916;2022-08-21T08:39:37;20.40;99.90
17797;DHT22;55596;53.554;9.916;2022-08-21T08:42:11;22.20;99.90
17797;DHT22;55596;53.554;9.916;2022-08-21T08:44:39;20.50;99.90
17797;DHT22;55596;53.554;9.916;2022-08-21T08:47:08;20.50;99.90
17797;DHT22;55596;53.554;9.916;2022-08-21T08:49:42;20.50;99.90
17797;DHT22;55596;53.554;9.916;2022-08-21T08:52:28;18.90;99.90
17797;DHT22;55596;53.554;9.916;2022-08-21T08:55:02;20.60;99.90
17797;DHT22;55596;53.554;9.916;2022-08-21T08:57:30;20.70;99.90
17797;DHT22;55596;53.554;9.916;2022-08-21T09:00:00;20.90;99.90
17797;DHT22;55596;53.554;9.916;2022-08-21T09:02:27;20.70;99.90
17797;DHT22;55596;53.554;9.916;2022-08-21T09:04:56;20.80;99.90
17797;DHT22;55596;53.554;9.916;2022-08-21T09:07:31;21.10;99.90
17797;DHT22;55596;53.554;9.916;2022-08-21T09:10:10;21.00;99.90
17797;DHT22;55596;53.554;9.916;2022-08-21T09:12:50;21.00;99.90
17797;DHT22;55596;53.554;9.916;2022-08-21T09:15:26;21.10;99.90
17797;DHT22;55596;53.554;9.916;2022-08-21T09:18:20;20.50;99.90
17797;DHT22;55596;53.554;9.916;2022-08-21T09:21:06;21.10;99.90
17797;DHT22;55596;53.554;9.916;2022-08-21T09:23:41;21.30;99.90
17797;DHT22;55596;53.554;9.916;2022-08-21T09:26:13;21.30;99.90
17797;DHT22;55596;53.554;9.916;2022-08-21T09:28:41;21.10;99.90
17797;DHT22;55596;53.554;9.916;2022-08-21T09:31:20;21.20;99.90
17797;DHT22;55596;53.554;9.916;2022-08-21T09:33:48;21.80;99.90
17797;DHT22;55596;53.554;9.916;2022-08-21T09:36:25;21.70;99.90
17797;DHT22;55596;53.554;9.916;2022-08-21T09:38:56;21.30;99.90
17797;DHT22;55596;53.554;9.916;2022-08-21T09:41:27;21.70;99.90
17797;DHT22;55596;53.554;9.916;2022-08-21T09:43:56;21.40;99.90
17797;DHT22;55596;53.554;9.916;2022-08-21T09:46:25;21.90;99.90
17797;DHT22;55596;53.554;9.916;2022-08-21T09:48:54;21.90;99.90
17797;DHT22;55596;53.554;9.916;2022-08-21T09:51:25;22.10;99.90
17797;DHT22;55596;53.554;9.916;2022-08-21T09:53:56;22.00;99.90
17797;DHT22;55596;53.554;9.916;2022-08-21T09:56:28;21.90;99.90
17797;DHT22;55596;53.554;9.916;2022-08-21T09:59:24;22.40;99.90
17797;DHT22;55596;53.554;9.916;2022-08-21T10:01:57;22.30;99.90
17797;DHT22;55596;53.554;9.916;2022-08-21T10:04:29;22.40;99.90
17797;DHT22;55596;53.554;9.916;2022-08-21T10:07:08;22.60;99.90
17797;DHT22;55596;53.554;9.916;2022-08-21T10:09:35;22.30;99.90
17797;DHT22;55596;53.554;9.916;2022-08-21T10:12:11;22.60;99.90
17797;DHT22;55596;53.554;9.916;2022-08-21T10:14:51;23.20;99.90
17797;DHT22;55596;53.554;9.916;2022-08-21T10:17:33;22.70;99.90
17797;DHT22;55596;53.554;9.916;2022-08-21T10:20:05;23.30;99.90
17797;DHT22;55596;53.554;9.916;2022-08-21T10:22:41;21.70;99.90
17797;DHT22;55596;53.554;9.916;2022-08-21T10:25:17;23.20;99.90
17797;DHT22;55596;53.554;9.916;2022-08-21T10:27:54;23.10;99.90
17797;DHT22;55596;53.554;9.916;2022-08-21T10:30:34;23.60;99.90
17797;DHT22;55596;53.554;9.916;2022-08-21T10:33:16;23.50;99.90
17797;DHT22;55596;53.554;9.916;2022-08-21T10:35:51;23.30;99.90
17797;DHT22;55596;53.554;9.916;2022-08-21T10:41:32;23.40;99.90
17797;DHT22;55596;53.554;9.916;2022-08-21T10:44:12;23.50;99.90
17797;DHT22;55596;53.554;9.916;2022-08-21T10:46:47;25.00;99.90
17797;DHT22;55596;53.554;9.916;2022-08-21T10:49:25;23.30;99.90
17797;DHT22;55596;53.554;9.916;2022-08-21T10:52:02;23.50;99.90
17797;DHT22;55596;53.554;9.916;2022-08-21T10:54:46;23.50;99.90
17797;DHT22;55596;53.554;9.916;2022-08-21T10:57:26;23.00;99.90
17797;DHT22;55596;53.554;9.916;2022-08-21T10:59:57;23.50;99.90
17797;DHT22;55596;53.554;9.916;2022-08-21T11:02:30;23.50;99.90
17797;DHT22;55596;53.554;9.916;2022-08-21T11:05:02;24.00;99.90
17797;DHT22;55596;53.554;9.916;2022-08-21T11:07:35;24.20;99.90
17797;DHT22;55596;53.554;9.916;2022-08-21T11:10:11;24.30;99.80
17797;DHT22;55596;53.554;9.916;2022-08-21T11:12:43;24.20;99.90
17797;DHT22;55596;53.554;9.916;2022-08-21T11:15:25;24.60;99.90
17797;DHT22;55596;53.554;9.916;2022-08-21T11:18:00;24.50;99.90
17797;DHT22;55596;53.554;9.916;2022-08-21T11:20:33;24.40;99.90
17797;DHT22;55596;53.554;9.916;2022-08-21T11:23:04;24.20;99.90
17797;DHT22;55596;53.554;9.916;2022-08-21T11:25:37;24.10;99.90
17797;DHT22;55596;53.554;9.916;2022-08-21T11:28:09;24.10;99.90
17797;DHT22;55596;53.554;9.916;2022-08-21T11:30:48;24.00;99.90
17797;DHT22;55596;53.554;9.916;2022-08-21T11:33:30;24.60;99.90
17797;DHT22;55596;53.554;9.916;2022-08-21T11:36:05;24.90;99.90
17797;DHT22;55596;53.554;9.916;2022-08-21T11:38:35;25.40;99.20
17797;DHT22;55596;53.554;9.916;2022-08-21T11:41:18;26.50;88.90
17797;DHT22;55596;53.554;9.916;2022-08-21T11:43:48;27.00;83.40
17797;DHT22;55596;53.554;9.916;2022-08-21T11:46:28;28.20;78.70
17797;DHT22;55596;53.554;9.916;2022-08-21T11:49:06;29.20;69.40
17797;DHT22;55596;53.554;9.916;2022-08-21T11:51:40;29.70;59.30
17797;DHT22;55596;53.554;9.916;2022-08-21T11:54:26;29.00;65.20
17797;DHT22;55596;53.554;9.916;2022-08-21T11:57:01;27.80;65.60
17797;DHT22;55596;53.554;9.916;2022-08-21T11:59:35;27.10;63.70
17797;DHT22;55596;53.554;9.916;2022-08-21T12:02:09;26.90;69.40
17797;DHT22;55596;53.554;9.916;2022-08-21T12:04:44;26.10;74.30
17797;DHT22;55596;53.554;9.916;2022-08-21T12:07:14;26.00;74.20
17797;DHT22;55596;53.554;9.916;2022-08-21T12:09:52;27.20;80.60
17797;DHT22;55596;53.554;9.916;2022-08-21T12:12:26;28.90;74.20
17797;DHT22;55596;53.554;9.916;2022-08-21T12:15:23;29.00;58.60
17797;DHT22;55596;53.554;9.916;2022-08-21T12:17:55;28.40;61.20
17797;DHT22;55596;53.554;9.916;2022-08-21T12:20:33;27.90;69.40
17797;DHT22;55596;53.554;9.916;2022-08-21T12:23:06;29.00;68.10
17797;DHT22;55596;53.554;9.916;2022-08-21T12:25:43;29.40;64.20
17797;DHT22;55596;53.554;9.916;2022-08-21T12:28:21;29.60;53.30
17797;DHT22;55596;53.554;9.916;2022-08-21T12:30:48;31.50;59.50
17797;DHT22;55596;53.554;9.916;2022-08-21T12:33:22;31.80;54.60
17797;DHT22;55596;53.554;9.916;2022-08-21T12:35:52;30.90;48.50
17797;DHT22;55596;53.554;9.916;2022-08-21T12:38:22;29.60;52.20
17797;DHT22;55596;53.554;9.916;2022-08-21T12:40:55;30.30;62.70
17797;DHT22;55596;53.554;9.916;2022-08-21T12:43:27;30.30;54.70
17797;DHT22;55596;53.554;9.916;2022-08-21T12:45:56;30.60;59.90
17797;DHT22;55596;53.554;9.916;2022-08-21T12:48:28;31.60;50.10
17797;DHT22;55596;53.554;9.916;2022-08-21T12:50:58;33.10;51.20
17797;DHT22;55596;53.554;9.916;2022-08-21T12:53:37;32.50;46.10
17797;DHT22;55596;53.554;9.916;2022-08-21T12:56:10;32.00;45.30
17797;DHT22;55596;53.554;9.916;2022-08-21T12:58:40;31.60;40.20
17797;DHT22;55596;53.554;9.916;2022-08-21T13:01:13;31.60;38.70
17797;DHT22;55596;53.554;9.916;2022-08-21T13:03:43;30.80;39.50
17797;DHT22;55596;53.554;9.916;2022-08-21T13:06:14;29.60;50.70
17797;DHT22;55596;53.554;9.916;2022-08-21T13:08:43;29.50;56.60
17797;DHT22;55596;53.554;9.916;2022-08-21T13:11:15;30.70;47.60
17797;DHT22;55596;53.554;9.916;2022-08-21T13:13:48;32.50;48.50
17797;DHT22;55596;53.554;9.916;2022-08-21T13:16:20;34.70;43.00
17797;DHT22;55596;53.554;9.916;2022-08-21T13:18:55;35.90;36.70
17797;DHT22;55596;53.554;9.916;2022-08-21T13:21:28;36.20;41.60
17797;DHT22;55596;53.554;9.916;2022-08-21T13:24:16;36.70;39.40
17797;DHT22;55596;53.554;9.916;2022-08-21T13:26:43;37.60;36.70
17797;DHT22;55596;53.554;9.916;2022-08-21T13:29:13;36.70;32.60
17797;DHT22;55596;53.554;9.916;2022-08-21T13:31:47;36.30;38.00
17797;DHT22;55596;53.554;9.916;2022-08-21T13:34:14;35.70;36.30
17797;DHT22;55596;53.554;9.916;2022-08-21T13:36:43;35.70;37.40
17797;DHT22;55596;53.554;9.916;2022-08-21T13:39:12;36.10;30.50
17797;DHT22;55596;53.554;9.916;2022-08-21T13:41:43;36.60;36.00
17797;DHT22;55596;53.554;9.916;2022-08-21T13:44:17;37.00;29.90
17797;DHT22;55596;53.554;9.916;2022-08-21T13:46:45;37.00;42.60
17797;DHT22;55596;53.554;9.916;2022-08-21T13:49:15;36.50;36.30
17797;DHT22;55596;53.554;9.916;2022-08-21T13:51:44;35.90;34.10
17797;DHT22;55596;53.554;9.916;2022-08-21T13:54:23;35.60;33.10
17797;DHT22;55596;53.554;9.916;2022-08-21T13:56:51;36.50;30.40
17797;DHT22;55596;53.554;9.916;2022-08-21T13:59:28;37.50;35.50
17797;DHT22;55596;53.554;9.916;2022-08-21T14:01:58;38.60;30.50
17797;DHT22;55596;53.554;9.916;2022-08-21T14:04:33;38.10;40.40
17797;DHT22;55596;53.554;9.916;2022-08-21T14:07:02;37.60;41.50
17797;DHT22;55596;53.554;9.916;2022-08-21T14:09:42;38.00;36.80
17797;DHT22;55596;53.554;9.916;2022-08-21T14:12:13;36.40;42.00
17797;DHT22;55596;53.554;9.916;2022-08-21T14:14:43;36.70;35.90
17797;DHT22;55596;53.554;9.916;2022-08-21T14:17:16;36.90;37.50
17797;DHT22;55596;53.554;9.916;2022-08-21T14:19:52;37.10;33.10
17797;DHT22;55596;53.554;9.916;2022-08-21T14:22:27;37.60;34.60
17797;DHT22;55596;53.554;9.916;2022-08-21T14:25:00;37.70;34.00
17797;DHT22;55596;53.554;9.916;2022-08-21T14:27:29;37.60;33.60
17797;DHT22;55596;53.554;9.916;2022-08-21T14:30:09;38.20;36.40
17797;DHT22;55596;53.554;9.916;2022-08-21T14:32:37;38.30;29.30
17797;DHT22;55596;53.554;9.916;2022-08-21T14:35:05;39.00;35.70
17797;DHT22;55596;53.554;9.916;2022-08-21T14:37:33;38.60;34.60
17797;DHT22;55596;53.554;9.916;2022-08-21T14:40:00;38.10;36.10
17797;DHT22;55596;53.554;9.916;2022-08-21T14:42:28;37.60;30.80
17797;DHT22;55596;53.554;9.916;2022-08-21T14:44:59;38.30;36.10
17797;DHT22;55596;53.554;9.916;2022-08-21T14:47:28;38.00;26.30
17797;DHT22;55596;53.554;9.916;2022-08-21T14:49:55;37.70;31.50
17797;DHT22;55596;53.554;9.916;2022-08-21T14:52:22;38.30;32.70
17797;DHT22;55596;53.554;9.916;2022-08-21T14:54:52;38.40;33.90
17797;DHT22;55596;53.554;9.916;2022-08-21T14:57:18;38.80;32.10
17797;DHT22;55596;53.554;9.916;2022-08-21T14:59:45;38.30;29.30
17797;DHT22;55596;53.554;9.916;2022-08-21T15:02:12;38.10;34.50
17797;DHT22;55596;53.554;9.916;2022-08-21T15:04:41;38.80;37.10
17797;DHT22;55596;53.554;9.916;2022-08-21T15:07:08;38.90;35.00
17797;DHT22;55596;53.554;9.916;2022-08-21T15:09:35;39.10;32.10
17797;DHT22;55596;53.554;9.916;2022-08-21T15:12:03;38.00;32.50
17797;DHT22;55596;53.554;9.916;2022-08-21T15:14:34;37.20;29.60
17797;DHT22;55596;53.554;9.916;2022-08-21T15:17:02;37.00;39.90
17797;DHT22;55596;53.554;9.916;2022-08-21T15:19:29;36.80;26.90
17797;DHT22;55596;53.554;9.916;2022-08-21T15:21:58;36.90;34.40
17797;DHT22;55596;53.554;9.916;2022-08-21T15:24:25;36.70;29.60
17797;DHT22;55596;53.554;9.916;2022-08-21T15:26:53;36.80;30.30
17797;DHT22;55596;53.554;9.916;2022-08-21T15:29:20;37.70;30.90
17797;DHT22;55596;53.554;9.916;2022-08-21T15:31:53;39.30;29.20
17797;DHT22;55596;53.554;9.916;2022-08-21T15:34:20;39.10;32.20
17797;DHT22;55596;53.554;9.916;2022-08-21T15:36:47;39.00;31.50
17797;DHT22;55596;53.554;9.916;2022-08-21T15:39:16;39.30;31.00
17797;DHT22;55596;53.554;9.916;2022-08-21T15:41:43;39.10;27.30
17797;DHT22;55596;53.554;9.916;2022-08-21T15:44:11;37.80;28.80
17797;DHT22;55596;53.554;9.916;2022-08-21T15:46:39;36.80;27.50
17797;DHT22;55596;53.554;9.916;2022-08-21T15:49:07;35.70;31.50
17797;DHT22;55596;53.554;9.916;2022-08-21T15:51:34;34.60;33.10